Terminal Aerodrome Forecast
Issued by NWS St Louis, MO

Home | Current Version | Previous Version | Graphics & Text | Print | Product List | Glossary On
Versions: 1 2 3 4 5 6 7 8 9 10 11 12 13 14 15 16 17 18 19 20 21 22 23 24 25 26 27 28 29 30 31 32 33 34
300
FTUS43 KLSX 221507 AAC
TAFSTL
TAF AMD
KSTL 221507Z 2215/2318 VRB03KT 2SM BR BKN002
     FM221600 VRB04KT 4SM BR BKN006
     FM221700 VRB04KT 5SM BR BKN012
     FM221800 20009G16KT P6SM SCT060
     FM230000 20005KT P6SM SCT250=

USA.gov is the U.S. government's official web portal to all federal, state and local government web resources and services.